sensor_id;sensor_type;location;lat;lon;timestamp;P1;durP1;ratioP1;P2;durP2;ratioP2
12587;SDS011;6359;51.450;7.346;2023-04-03T00:00:04;11.97;;;8.40;;
12587;SDS011;6359;51.450;7.346;2023-04-03T00:02:33;15.27;;;9.20;;
12587;SDS011;6359;51.450;7.346;2023-04-03T00:05:00;13.23;;;8.93;;
12587;SDS011;6359;51.450;7.346;2023-04-03T00:07:27;12.53;;;8.60;;
12587;SDS011;6359;51.450;7.346;2023-04-03T00:09:56;11.97;;;8.47;;
12587;SDS011;6359;51.450;7.346;2023-04-03T00:12:23;14.57;;;9.23;;
12587;SDS011;6359;51.450;7.346;2023-04-03T00:14:50;19.10;;;9.27;;
12587;SDS011;6359;51.450;7.346;2023-04-03T00:17:17;12.93;;;8.40;;
12587;SDS011;6359;51.450;7.346;2023-04-03T00:19:44;12.73;;;8.30;;
12587;SDS011;6359;51.450;7.346;2023-04-03T00:22:11;11.73;;;7.37;;
12587;SDS011;6359;51.450;7.346;2023-04-03T00:24:38;13.93;;;8.10;;
12587;SDS011;6359;51.450;7.346;2023-04-03T00:27:06;11.70;;;8.17;;
12587;SDS011;6359;51.450;7.346;2023-04-03T00:29:33;10.17;;;7.27;;
12587;SDS011;6359;51.450;7.346;2023-04-03T00:32:00;11.47;;;7.97;;
12587;SDS011;6359;51.450;7.346;2023-04-03T00:34:27;10.43;;;7.93;;
12587;SDS011;6359;51.450;7.346;2023-04-03T00:36:55;13.40;;;7.90;;
12587;SDS011;6359;51.450;7.346;2023-04-03T00:39:23;12.60;;;7.87;;
12587;SDS011;6359;51.450;7.346;2023-04-03T00:41:50;15.07;;;8.27;;
12587;SDS011;6359;51.450;7.346;2023-04-03T00:44:23;13.70;;;8.97;;
12587;SDS011;6359;51.450;7.346;2023-04-03T00:47:27;12.63;;;8.67;;
12587;SDS011;6359;51.450;7.346;2023-04-03T00:49:55;11.70;;;8.83;;
12587;SDS011;6359;51.450;7.346;2023-04-03T00:52:25;16.50;;;8.77;;
12587;SDS011;6359;51.450;7.346;2023-04-03T00:54:57;11.53;;;8.73;;
12587;SDS011;6359;51.450;7.346;2023-04-03T00:57:28;18.30;;;8.67;;
12587;SDS011;6359;51.450;7.346;2023-04-03T00:59:59;12.47;;;9.13;;
12587;SDS011;6359;51.450;7.346;2023-04-03T01:02:29;14.53;;;9.37;;
12587;SDS011;6359;51.450;7.346;2023-04-03T01:04:57;13.87;;;8.60;;
12587;SDS011;6359;51.450;7.346;2023-04-03T01:07:25;14.30;;;9.07;;
12587;SDS011;6359;51.450;7.346;2023-04-03T01:09:55;12.73;;;8.83;;
12587;SDS011;6359;51.450;7.346;2023-04-03T01:12:24;16.63;;;8.63;;
12587;SDS011;6359;51.450;7.346;2023-04-03T01:14:54;13.50;;;8.80;;
12587;SDS011;6359;51.450;7.346;2023-04-03T01:17:28;17.03;;;9.47;;
12587;SDS011;6359;51.450;7.346;2023-04-03T01:20:02;15.07;;;9.77;;
12587;SDS011;6359;51.450;7.346;2023-04-03T01:22:56;17.73;;;9.67;;
12587;SDS011;6359;51.450;7.346;2023-04-03T01:25:29;12.73;;;9.27;;
12587;SDS011;6359;51.450;7.346;2023-04-03T01:27:56;17.47;;;8.97;;
12587;SDS011;6359;51.450;7.346;2023-04-03T01:30:24;14.27;;;8.90;;
12587;SDS011;6359;51.450;7.346;2023-04-03T01:32:58;13.07;;;8.70;;
12587;SDS011;6359;51.450;7.346;2023-04-03T01:35:25;12.20;;;8.97;;
12587;SDS011;6359;51.450;7.346;2023-04-03T01:37:52;16.33;;;9.73;;
12587;SDS011;6359;51.450;7.346;2023-04-03T01:40:19;16.33;;;9.53;;
12587;SDS011;6359;51.450;7.346;2023-04-03T01:42:46;16.10;;;10.07;;
12587;SDS011;6359;51.450;7.346;2023-04-03T01:45:13;21.37;;;10.10;;
12587;SDS011;6359;51.450;7.346;2023-04-03T01:47:40;17.13;;;11.07;;
12587;SDS011;6359;51.450;7.346;2023-04-03T01:50:09;21.13;;;10.63;;
12587;SDS011;6359;51.450;7.346;2023-04-03T01:52:36;13.93;;;9.63;;
12587;SDS011;6359;51.450;7.346;2023-04-03T01:55:03;12.50;;;9.20;;
12587;SDS011;6359;51.450;7.346;2023-04-03T01:57:31;14.07;;;10.00;;
12587;SDS011;6359;51.450;7.346;2023-04-03T01:59:58;12.00;;;9.07;;
12587;SDS011;6359;51.450;7.346;2023-04-03T02:02:25;13.90;;;9.30;;
12587;SDS011;6359;51.450;7.346;2023-04-03T02:04:52;15.23;;;8.77;;
12587;SDS011;6359;51.450;7.346;2023-04-03T02:07:21;13.60;;;9.73;;
12587;SDS011;6359;51.450;7.346;2023-04-03T02:09:48;13.17;;;8.90;;
12587;SDS011;6359;51.450;7.346;2023-04-03T02:12:15;16.30;;;9.67;;
12587;SDS011;6359;51.450;7.346;2023-04-03T02:14:42;15.37;;;9.03;;
12587;SDS011;6359;51.450;7.346;2023-04-03T02:17:09;14.90;;;7.90;;
12587;SDS011;6359;51.450;7.346;2023-04-03T02:19:36;15.67;;;9.93;;
12587;SDS011;6359;51.450;7.346;2023-04-03T02:22:03;14.67;;;9.10;;
12587;SDS011;6359;51.450;7.346;2023-04-03T02:24:32;13.40;;;7.10;;
12587;SDS011;6359;51.450;7.346;2023-04-03T02:26:59;8.10;;;6.90;;
12587;SDS011;6359;51.450;7.346;2023-04-03T02:29:27;11.17;;;7.47;;
12587;SDS011;6359;51.450;7.346;2023-04-03T02:31:53;13.73;;;8.10;;
12587;SDS011;6359;51.450;7.346;2023-04-03T02:34:21;14.57;;;7.77;;
12587;SDS011;6359;51.450;7.346;2023-04-03T02:36:48;11.67;;;7.37;;
12587;SDS011;6359;51.450;7.346;2023-04-03T02:39:15;14.50;;;8.17;;
12587;SDS011;6359;51.450;7.346;2023-04-03T02:41:44;11.80;;;5.60;;
12587;SDS011;6359;51.450;7.346;2023-04-03T02:44:11;8.97;;;6.00;;
12587;SDS011;6359;51.450;7.346;2023-04-03T02:46:38;12.80;;;7.00;;
12587;SDS011;6359;51.450;7.346;2023-04-03T02:49:05;10.03;;;6.00;;
12587;SDS011;6359;51.450;7.346;2023-04-03T02:51:32;14.20;;;5.83;;
12587;SDS011;6359;51.450;7.346;2023-04-03T02:53:59;11.73;;;6.20;;
12587;SDS011;6359;51.450;7.346;2023-04-03T02:56:27;8.27;;;5.10;;
12587;SDS011;6359;51.450;7.346;2023-04-03T02:58:55;5.93;;;4.43;;
12587;SDS011;6359;51.450;7.346;2023-04-03T03:01:22;6.83;;;4.57;;
12587;SDS011;6359;51.450;7.346;2023-04-03T03:03:49;7.93;;;4.90;;
12587;SDS011;6359;51.450;7.346;2023-04-03T03:06:16;6.10;;;4.13;;
12587;SDS011;6359;51.450;7.346;2023-04-03T03:08:44;10.03;;;4.00;;
12587;SDS011;6359;51.450;7.346;2023-04-03T03:11:11;7.83;;;3.93;;
12587;SDS011;6359;51.450;7.346;2023-04-03T03:13:38;9.17;;;3.37;;
12587;SDS011;6359;51.450;7.346;2023-04-03T03:16:07;6.33;;;3.23;;
12587;SDS011;6359;51.450;7.346;2023-04-03T03:18:34;3.20;;;2.60;;
12587;SDS011;6359;51.450;7.346;2023-04-03T03:21:02;6.53;;;3.30;;
12587;SDS011;6359;51.450;7.346;2023-04-03T03:23:30;4.63;;;2.87;;
12587;SDS011;6359;51.450;7.346;2023-04-03T03:25:59;5.23;;;3.00;;
12587;SDS011;6359;51.450;7.346;2023-04-03T03:28:28;3.43;;;3.07;;
12587;SDS011;6359;51.450;7.346;2023-04-03T03:30:55;8.90;;;3.23;;
12587;SDS011;6359;51.450;7.346;2023-04-03T03:33:24;8.33;;;3.17;;
12587;SDS011;6359;51.450;7.346;2023-04-03T03:35:52;6.50;;;2.97;;
12587;SDS011;6359;51.450;7.346;2023-04-03T03:38:20;6.73;;;2.77;;
12587;SDS011;6359;51.450;7.346;2023-04-03T03:40:47;5.37;;;2.87;;
12587;SDS011;6359;51.450;7.346;2023-04-03T03:43:16;5.93;;;2.80;;
12587;SDS011;6359;51.450;7.346;2023-04-03T03:45:43;6.97;;;2.30;;
12587;SDS011;6359;51.450;7.346;2023-04-03T03:48:11;6.50;;;2.70;;
12587;SDS011;6359;51.450;7.346;2023-04-03T03:50:40;9.40;;;2.67;;
12587;SDS011;6359;51.450;7.346;2023-04-03T03:53:07;8.17;;;2.67;;
12587;SDS011;6359;51.450;7.346;2023-04-03T03:55:34;4.40;;;2.43;;
12587;SDS011;6359;51.450;7.346;2023-04-03T03:58:01;5.73;;;2.30;;
12587;SDS011;6359;51.450;7.346;2023-04-03T04:00:28;7.17;;;2.73;;
12587;SDS011;6359;51.450;7.346;2023-04-03T04:02:55;5.83;;;2.70;;
12587;SDS011;6359;51.450;7.346;2023-04-03T04:05:22;9.40;;;2.57;;
12587;SDS011;6359;51.450;7.346;2023-04-03T04:07:51;6.43;;;2.53;;
12587;SDS011;6359;51.450;7.346;2023-04-03T04:10:18;8.60;;;2.70;;
12587;SDS011;6359;51.450;7.346;2023-04-03T04:12:45;6.83;;;2.50;;
12587;SDS011;6359;51.450;7.346;2023-04-03T04:15:14;9.53;;;3.00;;
12587;SDS011;6359;51.450;7.346;2023-04-03T04:17:41;3.40;;;2.17;;
12587;SDS011;6359;51.450;7.346;2023-04-03T04:20:08;2.33;;;2.13;;
12587;SDS011;6359;51.450;7.346;2023-04-03T04:22:36;4.27;;;2.50;;
12587;SDS011;6359;51.450;7.346;2023-04-03T04:25:05;5.23;;;2.87;;
12587;SDS011;6359;51.450;7.346;2023-04-03T04:27:33;9.67;;;2.97;;
12587;SDS011;6359;51.450;7.346;2023-04-03T04:30:00;7.73;;;3.10;;
12587;SDS011;6359;51.450;7.346;2023-04-03T04:32:27;7.17;;;3.17;;
12587;SDS011;6359;51.450;7.346;2023-04-03T04:34:55;7.27;;;3.00;;
12587;SDS011;6359;51.450;7.346;2023-04-03T04:37:22;7.10;;;2.80;;
12587;SDS011;6359;51.450;7.346;2023-04-03T04:39:49;6.20;;;2.80;;
12587;SDS011;6359;51.450;7.346;2023-04-03T04:42:17;11.30;;;3.03;;
12587;SDS011;6359;51.450;7.346;2023-04-03T04:44:45;6.87;;;3.27;;
12587;SDS011;6359;51.450;7.346;2023-04-03T04:47:12;7.37;;;2.30;;
12587;SDS011;6359;51.450;7.346;2023-04-03T04:49:39;4.93;;;2.60;;
12587;SDS011;6359;51.450;7.346;2023-04-03T04:52:06;5.53;;;2.67;;
12587;SDS011;6359;51.450;7.346;2023-04-03T04:54:33;3.60;;;2.47;;
12587;SDS011;6359;51.450;7.346;2023-04-03T04:57:00;5.17;;;2.37;;
12587;SDS011;6359;51.450;7.346;2023-04-03T04:59:29;5.73;;;2.67;;
12587;SDS011;6359;51.450;7.346;2023-04-03T05:01:56;5.70;;;2.47;;
12587;SDS011;6359;51.450;7.346;2023-04-03T05:04:23;5.43;;;2.77;;
12587;SDS011;6359;51.450;7.346;2023-04-03T05:06:50;6.50;;;2.87;;
12587;SDS011;6359;51.450;7.346;2023-04-03T05:09:17;9.87;;;3.37;;
12587;SDS011;6359;51.450;7.346;2023-04-03T05:11:45;9.50;;;3.60;;
12587;SDS011;6359;51.450;7.346;2023-04-03T05:14:12;6.87;;;3.10;;
12587;SDS011;6359;51.450;7.346;2023-04-03T05:16:40;6.67;;;3.17;;
12587;SDS011;6359;51.450;7.346;2023-04-03T05:19:07;8.47;;;3.77;;
12587;SDS011;6359;51.450;7.346;2023-04-03T05:21:34;3.63;;;2.67;;
12587;SDS011;6359;51.450;7.346;2023-04-03T05:24:01;10.87;;;2.97;;
12587;SDS011;6359;51.450;7.346;2023-04-03T05:26:29;5.57;;;3.00;;
12587;SDS011;6359;51.450;7.346;2023-04-03T05:28:57;4.77;;;3.00;;
12587;SDS011;6359;51.450;7.346;2023-04-03T05:31:24;9.43;;;4.20;;
12587;SDS011;6359;51.450;7.346;2023-04-03T05:33:55;12.67;;;4.17;;
12587;SDS011;6359;51.450;7.346;2023-04-03T05:36:23;4.37;;;2.50;;
12587;SDS011;6359;51.450;7.346;2023-04-03T05:38:50;6.53;;;2.73;;
12587;SDS011;6359;51.450;7.346;2023-04-03T05:41:18;6.67;;;2.87;;
12587;SDS011;6359;51.450;7.346;2023-04-03T05:43:45;5.43;;;2.50;;
12587;SDS011;6359;51.450;7.346;2023-04-03T05:46:13;3.97;;;2.50;;
12587;SDS011;6359;51.450;7.346;2023-04-03T05:48:41;5.17;;;2.60;;
12587;SDS011;6359;51.450;7.346;2023-04-03T05:51:12;6.43;;;3.30;;
12587;SDS011;6359;51.450;7.346;2023-04-03T05:53:41;5.97;;;2.77;;
12587;SDS011;6359;51.450;7.346;2023-04-03T05:56:10;10.53;;;3.40;;
12587;SDS011;6359;51.450;7.346;2023-04-03T05:58:37;8.93;;;3.40;;
12587;SDS011;6359;51.450;7.346;2023-04-03T06:01:07;3.63;;;2.60;;
12587;SDS011;6359;51.450;7.346;2023-04-03T06:03:34;7.57;;;2.73;;
12587;SDS011;6359;51.450;7.346;2023-04-03T06:06:02;8.23;;;2.77;;
12587;SDS011;6359;51.450;7.346;2023-04-03T06:08:32;10.73;;;3.20;;
12587;SDS011;6359;51.450;7.346;2023-04-03T06:11:00;6.63;;;3.27;;
12587;SDS011;6359;51.450;7.346;2023-04-03T06:13:27;4.97;;;2.40;;
12587;SDS011;6359;51.450;7.346;2023-04-03T06:15:54;7.80;;;2.77;;
12587;SDS011;6359;51.450;7.346;2023-04-03T06:18:22;6.40;;;2.63;;
12587;SDS011;6359;51.450;7.346;2023-04-03T06:20:49;4.30;;;2.50;;
12587;SDS011;6359;51.450;7.346;2023-04-03T06:23:16;6.37;;;2.77;;
12587;SDS011;6359;51.450;7.346;2023-04-03T06:25:45;4.20;;;2.00;;
12587;SDS011;6359;51.450;7.346;2023-04-03T06:28:12;9.07;;;2.30;;
12587;SDS011;6359;51.450;7.346;2023-04-03T06:30:39;4.00;;;2.70;;
12587;SDS011;6359;51.450;7.346;2023-04-03T06:33:06;8.67;;;3.33;;
12587;SDS011;6359;51.450;7.346;2023-04-03T06:35:33;8.27;;;2.63;;
12587;SDS011;6359;51.450;7.346;2023-04-03T06:38:01;8.27;;;2.13;;
12587;SDS011;6359;51.450;7.346;2023-04-03T06:40:32;4.73;;;1.93;;
12587;SDS011;6359;51.450;7.346;2023-04-03T06:43:01;7.10;;;2.40;;
12587;SDS011;6359;51.450;7.346;2023-04-03T06:45:28;8.00;;;2.87;;
12587;SDS011;6359;51.450;7.346;2023-04-03T06:47:55;7.67;;;2.33;;
12587;SDS011;6359;51.450;7.346;2023-04-03T06:50:22;5.97;;;2.03;;
12587;SDS011;6359;51.450;7.346;2023-04-03T06:52:49;3.05;;;2.20;;
12587;SDS011;6359;51.450;7.346;2023-04-03T06:55:16;4.90;;;1.98;;
12587;SDS011;6359;51.450;7.346;2023-04-03T06:57:44;5.80;;;1.45;;
12587;SDS011;6359;51.450;7.346;2023-04-03T07:00:13;1.80;;;1.40;;
12587;SDS011;6359;51.450;7.346;2023-04-03T07:02:41;4.68;;;2.03;;
12587;SDS011;6359;51.450;7.346;2023-04-03T07:05:08;5.47;;;1.92;;
12587;SDS011;6359;51.450;7.346;2023-04-03T07:07:35;6.85;;;2.15;;
12587;SDS011;6359;51.450;7.346;2023-04-03T07:10:03;3.28;;;1.52;;
12587;SDS011;6359;51.450;7.346;2023-04-03T07:12:31;4.60;;;1.90;;
12587;SDS011;6359;51.450;7.346;2023-04-03T07:14:58;6.53;;;1.60;;
12587;SDS011;6359;51.450;7.346;2023-04-03T07:17:27;5.47;;;2.10;;
12587;SDS011;6359;51.450;7.346;2023-04-03T07:19:54;6.82;;;1.80;;
12587;SDS011;6359;51.450;7.346;2023-04-03T07:22:21;8.27;;;1.73;;
12587;SDS011;6359;51.450;7.346;2023-04-03T07:24:48;3.70;;;1.77;;
12587;SDS011;6359;51.450;7.346;2023-04-03T07:27:15;3.38;;;1.65;;
12587;SDS011;6359;51.450;7.346;2023-04-03T07:29:42;3.97;;;1.60;;
12587;SDS011;6359;51.450;7.346;2023-04-03T07:32:09;3.47;;;1.80;;
12587;SDS011;6359;51.450;7.346;2023-04-03T07:34:38;3.67;;;1.88;;
12587;SDS011;6359;51.450;7.346;2023-04-03T07:37:05;5.13;;;1.98;;
12587;SDS011;6359;51.450;7.346;2023-04-03T07:39:34;4.70;;;1.58;;
12587;SDS011;6359;51.450;7.346;2023-04-03T07:42:01;5.28;;;1.63;;
12587;SDS011;6359;51.450;7.346;2023-04-03T07:44:28;4.97;;;1.67;;
12587;SDS011;6359;51.450;7.346;2023-04-03T07:46:55;5.75;;;2.05;;
12587;SDS011;6359;51.450;7.346;2023-04-03T07:49:22;9.63;;;1.83;;
12587;SDS011;6359;51.450;7.346;2023-04-03T07:51:52;5.60;;;2.05;;
12587;SDS011;6359;51.450;7.346;2023-04-03T07:54:19;2.88;;;1.48;;
12587;SDS011;6359;51.450;7.346;2023-04-03T07:56:46;3.78;;;1.58;;
12587;SDS011;6359;51.450;7.346;2023-04-03T07:59:13;3.60;;;1.77;;
12587;SDS011;6359;51.450;7.346;2023-04-03T08:01:40;6.25;;;1.55;;
12587;SDS011;6359;51.450;7.346;2023-04-03T08:04:07;6.25;;;1.98;;
12587;SDS011;6359;51.450;7.346;2023-04-03T08:06:34;4.07;;;1.58;;
12587;SDS011;6359;51.450;7.346;2023-04-03T08:09:03;8.73;;;1.60;;
12587;SDS011;6359;51.450;7.346;2023-04-03T08:11:30;2.40;;;1.65;;
12587;SDS011;6359;51.450;7.346;2023-04-03T08:13:58;6.80;;;1.85;;
12587;SDS011;6359;51.450;7.346;2023-04-03T08:16:25;3.03;;;1.65;;
12587;SDS011;6359;51.450;7.346;2023-04-03T08:18:53;4.43;;;1.75;;
12587;SDS011;6359;51.450;7.346;2023-04-03T08:21:20;3.22;;;1.70;;
12587;SDS011;6359;51.450;7.346;2023-04-03T08:23:47;3.55;;;1.80;;
12587;SDS011;6359;51.450;7.346;2023-04-03T08:26:18;6.28;;;2.13;;
12587;SDS011;6359;51.450;7.346;2023-04-03T08:28:47;4.25;;;1.50;;
12587;SDS011;6359;51.450;7.346;2023-04-03T08:31:15;2.67;;;1.65;;
12587;SDS011;6359;51.450;7.346;2023-04-03T08:33:45;8.07;;;2.65;;
12587;SDS011;6359;51.450;7.346;2023-04-03T08:36:17;5.75;;;1.58;;
12587;SDS011;6359;51.450;7.346;2023-04-03T08:38:45;5.03;;;1.60;;
12587;SDS011;6359;51.450;7.346;2023-04-03T08:41:14;6.05;;;1.90;;
12587;SDS011;6359;51.450;7.346;2023-04-03T08:43:48;3.65;;;1.60;;
12587;SDS011;6359;51.450;7.346;2023-04-03T08:46:24;7.55;;;1.80;;
12587;SDS011;6359;51.450;7.346;2023-04-03T08:48:59;2.22;;;1.45;;
12587;SDS011;6359;51.450;7.346;2023-04-03T08:51:26;2.95;;;1.60;;
12587;SDS011;6359;51.450;7.346;2023-04-03T08:53:56;4.32;;;1.92;;
12587;SDS011;6359;51.450;7.346;2023-04-03T08:56:25;2.38;;;1.10;;
12587;SDS011;6359;51.450;7.346;2023-04-03T08:58:56;5.78;;;1.58;;
12587;SDS011;6359;51.450;7.346;2023-04-03T09:01:26;4.53;;;1.50;;
12587;SDS011;6359;51.450;7.346;2023-04-03T09:03:56;2.63;;;1.40;;
12587;SDS011;6359;51.450;7.346;2023-04-03T09:06:24;4.80;;;1.95;;
12587;SDS011;6359;51.450;7.346;2023-04-03T09:08:58;2.78;;;1.35;;
12587;SDS011;6359;51.450;7.346;2023-04-03T09:11:36;3.80;;;1.70;;
12587;SDS011;6359;51.450;7.346;2023-04-03T09:14:19;3.28;;;1.80;;
12587;SDS011;6359;51.450;7.346;2023-04-03T09:16:53;8.23;;;1.92;;
12587;SDS011;6359;51.450;7.346;2023-04-03T09:19:28;2.45;;;1.45;;
12587;SDS011;6359;51.450;7.346;2023-04-03T09:22:03;2.70;;;1.35;;
12587;SDS011;6359;51.450;7.346;2023-04-03T09:24:38;5.65;;;1.90;;
12587;SDS011;6359;51.450;7.346;2023-04-03T09:27:06;4.32;;;1.60;;
12587;SDS011;6359;51.450;7.346;2023-04-03T09:29:39;2.00;;;1.33;;
12587;SDS011;6359;51.450;7.346;2023-04-03T09:32:17;32.90;;;11.80;;
12587;SDS011;6359;51.450;7.346;2023-04-03T09:42:26;196.80;;;71.22;;
12587;SDS011;6359;51.450;7.346;2023-04-03T09:52:35;131.02;;;46.33;;
12587;SDS011;6359;51.450;7.346;2023-04-03T10:02:32;133.00;;;47.63;;
12587;SDS011;6359;51.450;7.346;2023-04-03T10:05:03;194.32;;;66.13;;
12587;SDS011;6359;51.450;7.346;2023-04-03T10:07:32;223.75;;;77.82;;
12587;SDS011;6359;51.450;7.346;2023-04-03T10:10:02;202.32;;;61.63;;
12587;SDS011;6359;51.450;7.346;2023-04-03T10:12:41;196.23;;;63.28;;
12587;SDS011;6359;51.450;7.346;2023-04-03T10:15:12;194.00;;;56.20;;
12587;SDS011;6359;51.450;7.346;2023-04-03T10:17:43;194.23;;;59.58;;
12587;SDS011;6359;51.450;7.346;2023-04-03T10:20:26;194.15;;;58.85;;
12587;SDS011;6359;51.450;7.346;2023-04-03T10:23:00;199.65;;;57.08;;
12587;SDS011;6359;51.450;7.346;2023-04-03T10:25:40;199.65;;;65.07;;
12587;SDS011;6359;51.450;7.346;2023-04-03T10:28:12;199.52;;;71.25;;
12587;SDS011;6359;51.450;7.346;2023-04-03T10:30:48;195.43;;;62.35;;
12587;SDS011;6359;51.450;7.346;2023-04-03T10:33:26;192.63;;;63.80;;
12587;SDS011;6359;51.450;7.346;2023-04-03T10:36:02;174.02;;;57.22;;
12587;SDS011;6359;51.450;7.346;2023-04-03T10:38:40;2.88;;;1.40;;
12587;SDS011;6359;51.450;7.346;2023-04-03T10:41:15;3.92;;;1.40;;
12587;SDS011;6359;51.450;7.346;2023-04-03T10:43:49;3.58;;;1.25;;
12587;SDS011;6359;51.450;7.346;2023-04-03T10:46:26;1.45;;;1.20;;
12587;SDS011;6359;51.450;7.346;2023-04-03T10:51:53;4.80;;;1.58;;
12587;SDS011;6359;51.450;7.346;2023-04-03T10:54:29;3.65;;;1.20;;
12587;SDS011;6359;51.450;7.346;2023-04-03T10:57:03;2.03;;;1.02;;
12587;SDS011;6359;51.450;7.346;2023-04-03T10:59:31;3.38;;;1.20;;
12587;SDS011;6359;51.450;7.346;2023-04-03T11:02:04;4.95;;;1.48;;
12587;SDS011;6359;51.450;7.346;2023-04-03T11:04:37;2.70;;;1.42;;
12587;SDS011;6359;51.450;7.346;2023-04-03T11:07:08;4.15;;;1.58;;
12587;SDS011;6359;51.450;7.346;2023-04-03T11:09:39;3.03;;;1.38;;
12587;SDS011;6359;51.450;7.346;2023-04-03T11:12:10;6.85;;;1.30;;
12587;SDS011;6359;51.450;7.346;2023-04-03T11:14:42;1.70;;;1.00;;
12587;SDS011;6359;51.450;7.346;2023-04-03T11:17:21;1.98;;;0.90;;
12587;SDS011;6359;51.450;7.346;2023-04-03T11:19:57;3.78;;;1.10;;
12587;SDS011;6359;51.450;7.346;2023-04-03T11:22:32;2.90;;;1.25;;
12587;SDS011;6359;51.450;7.346;2023-04-03T11:25:04;4.38;;;1.50;;
12587;SDS011;6359;51.450;7.346;2023-04-03T11:27:45;1.65;;;1.20;;
12587;SDS011;6359;51.450;7.346;2023-04-03T11:30:17;1.13;;;1.02;;
12587;SDS011;6359;51.450;7.346;2023-04-03T11:33:04;3.53;;;1.10;;
12587;SDS011;6359;51.450;7.346;2023-04-03T11:35:43;2.63;;;1.05;;
12587;SDS011;6359;51.450;7.346;2023-04-03T11:38:14;1.73;;;1.40;;
12587;SDS011;6359;51.450;7.346;2023-04-03T11:40:47;6.50;;;1.00;;
12587;SDS011;6359;51.450;7.346;2023-04-03T11:43:21;1.75;;;1.00;;
12587;SDS011;6359;51.450;7.346;2023-04-03T11:45:55;5.72;;;1.13;;
12587;SDS011;6359;51.450;7.346;2023-04-03T11:48:44;2.33;;;1.13;;
12587;SDS011;6359;51.450;7.346;2023-04-03T12:03:34;7.97;;;1.90;;
12587;SDS011;6359;51.450;7.346;2023-04-03T12:12:29;1.30;;;1.00;;
12587;SDS011;6359;51.450;7.346;2023-04-03T12:15:11;2.13;;;1.45;;
12587;SDS011;6359;51.450;7.346;2023-04-03T12:17:50;2.78;;;1.40;;
12587;SDS011;6359;51.450;7.346;2023-04-03T12:23:24;2.50;;;1.33;;
12587;SDS011;6359;51.450;7.346;2023-04-03T12:26:01;2.50;;;1.10;;
12587;SDS011;6359;51.450;7.346;2023-04-03T12:28:36;1.92;;;1.38;;
12587;SDS011;6359;51.450;7.346;2023-04-03T12:31:05;6.95;;;1.90;;
12587;SDS011;6359;51.450;7.346;2023-04-03T12:33:38;1.92;;;1.35;;
12587;SDS011;6359;51.450;7.346;2023-04-03T12:36:26;2.95;;;1.20;;
12587;SDS011;6359;51.450;7.346;2023-04-03T12:39:10;2.80;;;1.10;;
12587;SDS011;6359;51.450;7.346;2023-04-03T12:42:11;2.92;;;1.45;;
12587;SDS011;6359;51.450;7.346;2023-04-03T12:44:52;4.05;;;2.38;;
12587;SDS011;6359;51.450;7.346;2023-04-03T12:47:28;3.13;;;1.38;;
12587;SDS011;6359;51.450;7.346;2023-04-03T12:50:01;3.25;;;1.17;;
12587;SDS011;6359;51.450;7.346;2023-04-03T12:52:32;3.42;;;2.13;;
12587;SDS011;6359;51.450;7.346;2023-04-03T12:55:03;5.13;;;1.42;;
12587;SDS011;6359;51.450;7.346;2023-04-03T12:57:40;8.25;;;1.58;;
12587;SDS011;6359;51.450;7.346;2023-04-03T13:00:20;1.60;;;1.15;;
12587;SDS011;6359;51.450;7.346;2023-04-03T13:02:52;2.47;;;1.10;;
12587;SDS011;6359;51.450;7.346;2023-04-03T13:05:21;4.20;;;1.77;;
12587;SDS011;6359;51.450;7.346;2023-04-03T13:07:52;2.50;;;1.67;;
12587;SDS011;6359;51.450;7.346;2023-04-03T13:10:23;1.25;;;1.00;;
12587;SDS011;6359;51.450;7.346;2023-04-03T13:12:51;2.35;;;1.55;;
12587;SDS011;6359;51.450;7.346;2023-04-03T13:15:21;4.60;;;1.75;;
12587;SDS011;6359;51.450;7.346;2023-04-03T13:17:50;1.92;;;1.30;;
12587;SDS011;6359;51.450;7.346;2023-04-03T13:20:19;1.23;;;1.13;;
12587;SDS011;6359;51.450;7.346;2023-04-03T13:22:54;1.58;;;1.13;;
12587;SDS011;6359;51.450;7.346;2023-04-03T13:25:26;5.95;;;1.77;;
12587;SDS011;6359;51.450;7.346;2023-04-03T13:27:55;2.85;;;1.70;;
12587;SDS011;6359;51.450;7.346;2023-04-03T13:30:25;4.60;;;2.15;;
12587;SDS011;6359;51.450;7.346;2023-04-03T13:32:56;1.75;;;1.30;;
12587;SDS011;6359;51.450;7.346;2023-04-03T13:35:26;5.97;;;1.13;;
12587;SDS011;6359;51.450;7.346;2023-04-03T13:37:57;10.93;;;2.58;;
12587;SDS011;6359;51.450;7.346;2023-04-03T13:40:25;2.20;;;1.50;;
12587;SDS011;6359;51.450;7.346;2023-04-03T13:42:59;2.33;;;1.13;;
12587;SDS011;6359;51.450;7.346;2023-04-03T13:45:28;1.73;;;1.52;;
12587;SDS011;6359;51.450;7.346;2023-04-03T13:48:10;4.15;;;1.17;;
12587;SDS011;6359;51.450;7.346;2023-04-03T13:50:51;3.03;;;1.33;;
12587;SDS011;6359;51.450;7.346;2023-04-03T13:53:23;4.82;;;1.67;;
12587;SDS011;6359;51.450;7.346;2023-04-03T13:55:53;7.28;;;1.30;;
12587;SDS011;6359;51.450;7.346;2023-04-03T13:58:26;2.00;;;1.42;;
12587;SDS011;6359;51.450;7.346;2023-04-03T14:00:54;3.10;;;1.42;;
12587;SDS011;6359;51.450;7.346;2023-04-03T14:03:28;1.63;;;0.90;;
12587;SDS011;6359;51.450;7.346;2023-04-03T14:05:57;2.85;;;1.40;;
12587;SDS011;6359;51.450;7.346;2023-04-03T14:08:26;2.40;;;1.10;;
12587;SDS011;6359;51.450;7.346;2023-04-03T14:10:54;5.03;;;1.58;;
12587;SDS011;6359;51.450;7.346;2023-04-03T14:13:21;3.25;;;1.13;;
12587;SDS011;6359;51.450;7.346;2023-04-03T14:15:48;2.65;;;1.52;;
12587;SDS011;6359;51.450;7.346;2023-04-03T14:18:20;4.10;;;1.20;;
12587;SDS011;6359;51.450;7.346;2023-04-03T14:20:48;10.13;;;2.28;;
12587;SDS011;6359;51.450;7.346;2023-04-03T14:23:15;2.08;;;1.40;;
12587;SDS011;6359;51.450;7.346;2023-04-03T14:25:44;4.72;;;1.50;;
12587;SDS011;6359;51.450;7.346;2023-04-03T14:28:14;3.67;;;2.03;;
12587;SDS011;6359;51.450;7.346;2023-04-03T14:30:42;2.40;;;1.48;;
12587;SDS011;6359;51.450;7.346;2023-04-03T14:33:12;3.40;;;1.33;;
12587;SDS011;6359;51.450;7.346;2023-04-03T14:35:40;3.00;;;1.30;;
12587;SDS011;6359;51.450;7.346;2023-04-03T14:38:12;5.13;;;2.05;;
12587;SDS011;6359;51.450;7.346;2023-04-03T14:40:50;3.05;;;1.50;;
12587;SDS011;6359;51.450;7.346;2023-04-03T14:43:18;1.40;;;1.30;;
12587;SDS011;6359;51.450;7.346;2023-04-03T14:45:46;2.97;;;1.33;;
12587;SDS011;6359;51.450;7.346;2023-04-03T14:48:15;5.43;;;1.30;;
12587;SDS011;6359;51.450;7.346;2023-04-03T14:50:45;1.35;;;1.25;;
12587;SDS011;6359;51.450;7.346;2023-04-03T14:53:14;4.60;;;1.52;;
12587;SDS011;6359;51.450;7.346;2023-04-03T14:55:43;1.58;;;1.20;;
12587;SDS011;6359;51.450;7.346;2023-04-03T14:58:14;2.88;;;1.17;;
12587;SDS011;6359;51.450;7.346;2023-04-03T15:00:42;3.00;;;1.23;;
12587;SDS011;6359;51.450;7.346;2023-04-03T15:03:12;6.70;;;1.60;;
12587;SDS011;6359;51.450;7.346;2023-04-03T15:05:41;1.75;;;1.10;;
12587;SDS011;6359;51.450;7.346;2023-04-03T15:08:13;5.53;;;1.30;;
12587;SDS011;6359;51.450;7.346;2023-04-03T15:10:46;3.35;;;1.55;;
12587;SDS011;6359;51.450;7.346;2023-04-03T15:13:15;2.17;;;1.40;;
12587;SDS011;6359;51.450;7.346;2023-04-03T15:15:42;6.43;;;1.95;;
12587;SDS011;6359;51.450;7.346;2023-04-03T15:18:10;3.88;;;1.55;;
12587;SDS011;6359;51.450;7.346;2023-04-03T15:20:42;3.70;;;1.75;;
12587;SDS011;6359;51.450;7.346;2023-04-03T15:23:10;3.45;;;1.20;;
12587;SDS011;6359;51.450;7.346;2023-04-03T15:25:40;2.95;;;1.33;;
12587;SDS011;6359;51.450;7.346;2023-04-03T15:28:09;2.80;;;1.48;;
12587;SDS011;6359;51.450;7.346;2023-04-03T15:30:42;3.60;;;1.30;;
12587;SDS011;6359;51.450;7.346;2023-04-03T15:33:09;3.88;;;2.15;;
12587;SDS011;6359;51.450;7.346;2023-04-03T15:35:36;5.07;;;1.58;;
12587;SDS011;6359;51.450;7.346;2023-04-03T15:38:03;2.88;;;1.52;;
12587;SDS011;6359;51.450;7.346;2023-04-03T15:40:30;3.20;;;1.35;;
12587;SDS011;6359;51.450;7.346;2023-04-03T15:42:57;2.88;;;1.08;;
12587;SDS011;6359;51.450;7.346;2023-04-03T15:45:24;1.70;;;1.23;;
12587;SDS011;6359;51.450;7.346;2023-04-03T15:47:53;5.80;;;1.60;;
12587;SDS011;6359;51.450;7.346;2023-04-03T15:50:21;4.43;;;1.38;;
12587;SDS011;6359;51.450;7.346;2023-04-03T15:52:49;3.85;;;1.55;;
12587;SDS011;6359;51.450;7.346;2023-04-03T15:55:19;4.25;;;1.33;;
12587;SDS011;6359;51.450;7.346;2023-04-03T15:57:46;4.55;;;1.42;;